7D3 weather

Baldwin Municipal Airport
Baldwin, Michigan, United States

Public forecast

Using degrees Fahrenheit for public forecast. Weather courtesy of forecast.io.

METAR (pilot weather report)

Closest report is Roben Hood Airport, 17.3 nm (32.0 km) ESE. Retrieved 2019/07/24 01:39 UTC (0 seconds ago):

KRQB 240139Z AUTO 32004KT 10SM CLR 18/10 A3007 RMK AO2 T01810097

TAF (pilot weather forecast)

Forecast is more than 12 hours old.

Closest forecast is Manistee Co Blacker Airport, 29.5 nm (54.7 km) NW. Retrieved 2019/07/23 00:24 UTC (1 day ago):

TAF KMBL 232321Z 2400/2424 33005KT P6SM FEW250 FM240200 VRB03KT P6SM FEW250 FM241700 26005KT P6SM FEW050